Amarillo, Texas
Current Conditions -  °F | °C
As of 12:53 PM on Sunday 23 Nov 2014 (Local Time) from KAMA Reporting Station
Overcast Overcast  
Wind Chill: 51°   Ceiling: 5000
Heat Index: 51°   Visibility: 10mi
Dew Point: 24°   Wind: 29mph
Humidity: 35%   Direction: 350°N
Pressure: 29.67"   Gusts: 40mph
Location:  35.21°N, 101.83°W
Report Text: KAMA 231853Z 35025G35KT 10SM BKN050 OVC075 11/M04 A2967 RMK AO2 PK WND 36043/1754 SLP026 T01061044
Loading
Personal Weather Stations






























Interactive Weather Map New forecast layout! Learn more

10-Day Weather Forecast

Advertisements
Track Severe Weather on mobile